Terminal Aerodrome Forecast
Issued by NWS

Current Version | Previous Version | Graphics & Text | Print | Product List | Glossary Off
Versions: 1 2 3 4 5 6 7 8 9 10 11 12 13 14 15 16 17 18 19

000
FTUS42 KILM 251700
TAFCRE
TAF
KCRE 251722Z 2518/2618 07005KT P6SM BKN025
      TEMPO 2519/2523 5SM SHRA BR SCT025 BKN100
     FM252300 22002KT P6SM SCT040 SCT100
     FM260800 25001KT 4SM BR FEW020 SCT060
     FM261400 22005KT P6SM SCT025=

USA.gov is the U.S. government's official web portal to all federal, state and local government web resources and services.